首页
METAR-TAF:

METAR-TAF

机场 :

韋科, 得克萨斯州, 美国

纬度: 31-38-16N, 经度: 097-04-27W, 海拔: 143米

当前天气观测

该预报发布于4小时和45分钟前的03:55 UTC
风速4节,风向东转东南
温度 25°C
湿度 83%
气压 1016 hPa
能見度: 16.1公里
天空无云

METAR: KCNW 220355Z 11004KT 10SM SKC 25/22 A2999

时间: 02:40 (08:40 UTC)


TAF: 丢失

超过4000个机场的气象观测和天气预报(METAR&TAF报告)。

可查询的气象台以黄色和红色小点在地图上表示。

将鼠标移到小点上方,可查看气象台名称。

然后点击查看天气观测和预报。

如需切换地图:点击带黑十字的绿色按钮放大地图;点击带横线的绿色按钮缩小地图;或者点击绿色箭头查看邻近地区的地图。


METAR-TAF: